Hovedside
METAR-TAF:

METAR-TAF

Lufthavner :

Bodø lufthavn

Bodø, Norge

breddegrad: 67-16N, lengdegrad: 014-22E, høyde over havet: 1 m

Gjeldene værobservasjon

Denne rapporten ble laget for 25 minutter siden, klokken 06:20 UTC
Vind 17 kt fra Øst
Temperatur 1°C
Luftfuktighet 69%
Trykk 1015 hPa
Sikt 10 km eller mer
Spredte skyer i en høyde av 4000 ft
Brutte skyer i en høyde av 6000 ft

METAR: ENBO 150620Z 09017KT 9999 SCT040 BKN060 01/M04 Q1015 TEMPO 3000 SHRASN SCT014CB BKN020

Tid: 07:45 (06:45 UTC)

Varsel

Varsel gyldig fra 15. klokken 06 UTC til 16. klokken 06 UTC
Vind 12 kt fra Øst
Sikt 10 km eller mer
Få skyer i en høyde av 1500 ft, Tårnskyer (cumulus).
Brutte skyer i en høyde av 3000 ft
Midlertidig
fra 15. klokken 06 UTC til 16. klokken 06 UTC
Vind 20 kt fra Sørvest
Sikt: 3000 m
Spredte skyer i en høyde av 1400 ft, Bygeskyer.
Brutte skyer i en høyde av 2000 ft
regnbyger, snø

TAF: ENBO 1506/1606 10012KT 9999 FEW015TCU BKN030 TEMPO 1506/1606 22020KT 3000 SHRASN SCT014CB BKN020

Værobservasjoner og værvarsel for over 4000 flyplasser (METAR- og TAF-rapporter).

Tilgjengelige stasjoner er representert av de røde og gule prikkene på kartet.

Hold musepekeren over prikken for å se navnet på stasjonen.

Klikk så for å se værobservasjoner og -varsler.

For å forandre kartet kan du klikke på den grønne knappen med svart kryss for å zoome inn, på den grønne knappen med strek for å zoome ut, eller på de grønne pilene for å se tilstøtende kart.


METAR-TAF: